createdAt,value
2023-08-27T00:02:27.498Z,26.99
2023-08-27T00:04:56.614Z,26.90
2023-08-27T00:07:25.226Z,26.82
2023-08-27T00:09:53.141Z,26.78
2023-08-27T00:12:21.069Z,26.71
2023-08-27T00:14:50.409Z,26.67
2023-08-27T00:17:18.307Z,26.63
2023-08-27T00:19:46.232Z,26.54
2023-08-27T00:22:14.166Z,26.49
2023-08-27T00:24:42.076Z,26.46
2023-08-27T00:27:09.970Z,26.42
2023-08-27T00:29:37.852Z,26.41
2023-08-27T00:32:19.319Z,26.41
2023-08-27T00:34:52.650Z,26.47
2023-08-27T00:37:21.340Z,26.51
2023-08-27T00:39:49.302Z,26.47
2023-08-27T00:42:17.266Z,26.44
2023-08-27T00:44:45.376Z,26.46
2023-08-27T00:47:16.850Z,26.50
2023-08-27T00:49:45.299Z,26.48
2023-08-27T00:52:14.269Z,26.29
2023-08-27T00:54:42.794Z,26.12
2023-08-27T00:57:11.128Z,26.02
2023-08-27T00:59:39.301Z,25.92
2023-08-27T01:02:07.201Z,25.81
2023-08-27T01:04:36.535Z,25.80
2023-08-27T01:07:12.773Z,25.91
2023-08-27T01:09:48.134Z,25.81
2023-08-27T01:12:25.568Z,25.72
2023-08-27T01:14:55.416Z,25.68
2023-08-27T01:17:24.366Z,25.44
2023-08-27T01:19:53.743Z,25.25
2023-08-27T01:22:23.052Z,25.13
2023-08-27T01:24:50.973Z,24.94
2023-08-27T01:27:28.265Z,24.79
2023-08-27T01:30:04.775Z,24.66
2023-08-27T01:32:39.286Z,24.55
2023-08-27T01:35:12.647Z,24.47
2023-08-27T01:37:42.651Z,24.45
2023-08-27T01:40:11.689Z,24.43
2023-08-27T01:42:41.058Z,24.51
2023-08-27T01:45:11.057Z,24.38
2023-08-27T01:47:39.099Z,24.44
2023-08-27T01:50:08.431Z,24.22
2023-08-27T01:52:37.270Z,24.07
2023-08-27T01:55:08.923Z,24.06
2023-08-27T01:57:37.139Z,24.09
2023-08-27T02:00:10.146Z,24.03
2023-08-27T02:02:43.632Z,24.02
2023-08-27T02:05:12.222Z,24.02
2023-08-27T02:07:41.821Z,23.95
2023-08-27T02:10:11.504Z,23.83
2023-08-27T02:12:39.472Z,23.68
2023-08-27T02:15:08.885Z,23.66
2023-08-27T02:17:39.187Z,23.66
2023-08-27T02:20:11.391Z,23.77
2023-08-27T02:22:39.854Z,24.01
2023-08-27T02:25:08.731Z,24.31
2023-08-27T02:27:38.028Z,24.53
2023-08-27T02:30:07.322Z,24.71
2023-08-27T02:32:37.023Z,24.86
2023-08-27T02:35:05.417Z,24.97
2023-08-27T02:37:33.369Z,25.01
2023-08-27T02:40:01.297Z,24.98
2023-08-27T02:42:29.258Z,24.67
2023-08-27T02:44:58.509Z,24.61
2023-08-27T02:47:26.469Z,24.41
2023-08-27T02:49:56.849Z,24.14
2023-08-27T02:52:24.802Z,23.98
2023-08-27T02:54:52.858Z,24.00
2023-08-27T02:57:20.856Z,24.02
2023-08-27T02:59:49.123Z,23.91
2023-08-27T03:02:18.613Z,24.21
2023-08-27T03:04:46.543Z,24.39
2023-08-27T03:07:15.670Z,24.57
2023-08-27T03:09:43.594Z,24.72
2023-08-27T03:12:11.471Z,24.83
2023-08-27T03:14:39.341Z,24.94
2023-08-27T03:17:07.328Z,24.99
2023-08-27T03:19:36.588Z,25.05
2023-08-27T03:22:04.807Z,25.08
2023-08-27T03:24:32.863Z,25.07
2023-08-27T03:27:00.844Z,25.06
2023-08-27T03:29:30.586Z,25.07
2023-08-27T03:31:58.602Z,25.08
2023-08-27T03:34:26.622Z,25.07
2023-08-27T03:36:55.987Z,25.08
2023-08-27T03:39:24.001Z,25.02
2023-08-27T03:41:51.944Z,25.07
2023-08-27T03:44:19.829Z,25.02
2023-08-27T03:46:47.776Z,25.07
2023-08-27T03:49:15.906Z,25.07
2023-08-27T03:51:45.436Z,25.04
2023-08-27T03:54:15.545Z,24.99
2023-08-27T03:56:43.493Z,24.97
2023-08-27T03:59:11.394Z,24.95
2023-08-27T04:01:39.438Z,24.91
2023-08-27T04:04:07.488Z,24.87
2023-08-27T04:06:35.814Z,24.91
2023-08-27T04:09:05.283Z,24.92
2023-08-27T04:11:34.612Z,24.93
2023-08-27T04:14:02.525Z,24.94
2023-08-27T04:16:31.192Z,24.95
2023-08-27T04:18:59.103Z,24.97
2023-08-27T04:21:27.121Z,24.98
2023-08-27T04:23:56.717Z,24.98
2023-08-27T04:26:25.318Z,25.00
2023-08-27T04:28:56.030Z,24.97
2023-08-27T04:31:24.042Z,24.85
2023-08-27T04:33:52.000Z,24.88
2023-08-27T04:36:21.202Z,24.91
2023-08-27T04:38:49.084Z,24.94
2023-08-27T04:41:17.044Z,24.97
2023-08-27T04:43:46.244Z,24.90
2023-08-27T04:46:15.602Z,24.87
2023-08-27T04:48:43.587Z,24.89
2023-08-27T04:51:11.552Z,24.88
2023-08-27T04:53:39.480Z,24.89
2023-08-27T04:56:07.442Z,24.93
2023-08-27T04:58:36.384Z,24.93
2023-08-27T05:01:04.624Z,24.95
2023-08-27T05:03:34.379Z,24.99
2023-08-27T05:06:02.384Z,25.02
2023-08-27T05:08:30.341Z,24.99
2023-08-27T05:10:58.412Z,24.99
2023-08-27T05:13:28.092Z,25.00
2023-08-27T05:15:56.038Z,25.08
2023-08-27T05:18:24.141Z,25.15
2023-08-27T05:20:53.581Z,25.17
2023-08-27T05:23:23.829Z,25.24
2023-08-27T05:25:52.031Z,25.29
2023-08-27T05:28:21.028Z,25.31
2023-08-27T05:30:49.037Z,25.36
2023-08-27T05:33:17.319Z,25.40
2023-08-27T05:35:45.344Z,25.41
2023-08-27T05:38:14.705Z,25.42
2023-08-27T05:40:42.746Z,25.48
2023-08-27T05:43:10.644Z,25.53
2023-08-27T05:45:38.561Z,25.58
2023-08-27T05:48:07.849Z,25.60
2023-08-27T05:50:38.024Z,25.62
2023-08-27T05:53:06.239Z,25.63
2023-08-27T05:55:37.311Z,25.67
2023-08-27T05:58:06.471Z,25.55
2023-08-27T06:00:35.571Z,25.45
2023-08-27T06:03:04.881Z,25.36
2023-08-27T06:05:33.228Z,25.26
2023-08-27T06:08:03.996Z,24.95
2023-08-27T06:10:33.078Z,24.69
2023-08-27T06:13:04.496Z,24.51
2023-08-27T06:15:35.597Z,24.41
2023-08-27T06:18:04.904Z,24.34
2023-08-27T06:20:33.292Z,24.40
2023-08-27T06:23:01.824Z,24.50
2023-08-27T06:25:29.733Z,24.52
2023-08-27T06:27:58.291Z,24.65
2023-08-27T06:30:27.837Z,24.60
2023-08-27T06:32:56.292Z,24.64
2023-08-27T06:35:24.926Z,24.80
2023-08-27T06:37:52.829Z,25.00
2023-08-27T06:40:21.008Z,25.13
2023-08-27T06:42:48.982Z,25.25
2023-08-27T06:45:23.065Z,25.47
2023-08-27T06:47:53.071Z,25.68
2023-08-27T06:50:21.226Z,25.83
2023-08-27T06:52:49.346Z,25.98
2023-08-27T06:55:17.501Z,26.11
2023-08-27T06:57:45.500Z,26.18
2023-08-27T07:00:14.422Z,26.23
2023-08-27T07:02:45.197Z,26.36
2023-08-27T07:05:15.238Z,26.48
2023-08-27T07:07:44.069Z,26.60
2023-08-27T07:10:13.091Z,26.70
2023-08-27T07:12:41.813Z,26.75
2023-08-27T07:15:12.035Z,26.81
2023-08-27T07:17:40.902Z,26.92
2023-08-27T07:20:10.309Z,26.97
2023-08-27T07:22:39.711Z,26.98
2023-08-27T07:25:10.069Z,27.05
2023-08-27T07:27:38.778Z,27.18
2023-08-27T07:30:09.020Z,27.29
2023-08-27T07:32:37.910Z,27.29
2023-08-27T07:35:08.656Z,27.24
2023-08-27T07:37:39.758Z,27.19
2023-08-27T07:40:11.798Z,26.94
2023-08-27T07:42:40.135Z,26.82
2023-08-27T07:45:09.090Z,26.83
2023-08-27T07:47:37.507Z,27.04
2023-08-27T07:50:07.173Z,27.22
2023-08-27T07:52:35.158Z,27.36
2023-08-27T07:55:05.381Z,27.36
2023-08-27T07:57:33.376Z,27.38
2023-08-27T08:00:01.371Z,27.45
2023-08-27T08:02:30.497Z,27.60
2023-08-27T08:04:59.675Z,27.74
2023-08-27T08:07:27.703Z,27.82
2023-08-27T08:09:55.753Z,27.80
2023-08-27T08:12:24.986Z,27.80
2023-08-27T08:14:54.124Z,27.88
2023-08-27T08:17:28.863Z,27.97
2023-08-27T08:20:04.866Z,28.03
2023-08-27T08:22:32.819Z,28.07
2023-08-27T08:25:00.992Z,28.10
2023-08-27T08:27:30.240Z,28.07
2023-08-27T08:29:58.250Z,28.15
2023-08-27T08:32:26.112Z,28.23
2023-08-27T08:34:55.175Z,28.31
2023-08-27T08:37:23.378Z,28.33
2023-08-27T08:39:51.586Z,28.36
2023-08-27T08:42:28.654Z,28.39
2023-08-27T08:45:08.664Z,28.39
2023-08-27T08:47:37.857Z,28.38
2023-08-27T08:50:09.387Z,28.36
2023-08-27T08:52:40.665Z,28.33
2023-08-27T08:55:10.613Z,28.28
2023-08-27T08:57:44.558Z,28.23
2023-08-27T09:00:15.177Z,28.25
2023-08-27T09:02:44.827Z,28.29
2023-08-27T09:05:13.446Z,28.34
2023-08-27T09:07:43.879Z,28.39
2023-08-27T09:10:13.634Z,28.43
2023-08-27T09:12:42.845Z,28.51
2023-08-27T09:15:11.576Z,28.60
2023-08-27T09:17:41.096Z,28.70
2023-08-27T09:20:09.839Z,28.75
2023-08-27T09:22:38.965Z,28.76
2023-08-27T09:25:08.032Z,28.74
2023-08-27T09:27:36.116Z,28.75
2023-08-27T09:30:05.651Z,28.74
2023-08-27T09:32:34.746Z,28.74
2023-08-27T09:35:05.789Z,28.68
2023-08-27T09:37:40.310Z,28.66
2023-08-27T09:40:09.505Z,28.66
2023-08-27T09:42:37.979Z,28.67
2023-08-27T09:45:08.085Z,28.64
2023-08-27T09:47:38.199Z,28.59
2023-08-27T09:50:09.613Z,28.60
2023-08-27T09:52:37.535Z,28.61
2023-08-27T09:55:07.156Z,28.64
2023-08-27T09:57:35.078Z,28.70
2023-08-27T10:00:09.434Z,28.73
2023-08-27T10:02:45.113Z,28.76
2023-08-27T10:05:16.702Z,28.79
2023-08-27T10:07:57.255Z,28.80
2023-08-27T10:10:26.050Z,28.83
2023-08-27T10:12:54.503Z,28.83
2023-08-27T10:15:24.421Z,28.86
2023-08-27T10:17:54.480Z,28.88
2023-08-27T10:20:23.833Z,28.90
2023-08-27T10:22:52.283Z,28.92
2023-08-27T10:25:20.527Z,28.90
2023-08-27T10:27:50.229Z,28.97
2023-08-27T10:30:19.931Z,28.97
2023-08-27T10:32:48.446Z,29.04
2023-08-27T10:35:17.667Z,29.07
2023-08-27T10:37:53.160Z,29.10
2023-08-27T10:40:22.802Z,29.16
2023-08-27T10:42:50.778Z,29.23
2023-08-27T10:45:21.523Z,29.24
2023-08-27T10:48:07.719Z,29.17
2023-08-27T10:50:48.049Z,29.10
2023-08-27T10:53:18.354Z,29.15
2023-08-27T10:55:52.265Z,29.17
2023-08-27T10:58:22.241Z,29.15
2023-08-27T11:01:03.452Z,29.16
2023-08-27T11:03:52.820Z,29.17
2023-08-27T11:06:21.406Z,29.21
2023-08-27T11:08:54.025Z,29.26
2023-08-27T11:11:26.240Z,29.28
2023-08-27T11:14:17.628Z,29.29
2023-08-27T11:16:49.646Z,29.31
2023-08-27T11:19:30.995Z,29.33
2023-08-27T11:22:07.721Z,29.38
2023-08-27T11:24:39.871Z,29.40
2023-08-27T11:27:08.183Z,29.46
2023-08-27T11:29:39.591Z,29.49
2023-08-27T11:32:09.026Z,29.49
2023-08-27T11:34:38.179Z,29.57
2023-08-27T11:37:06.680Z,29.64
2023-08-27T11:39:36.187Z,29.75
2023-08-27T11:42:10.486Z,29.93
2023-08-27T11:44:47.380Z,30.08
2023-08-27T11:47:15.299Z,30.11
2023-08-27T11:49:43.230Z,30.13
2023-08-27T11:52:11.268Z,30.26
2023-08-27T11:54:39.181Z,30.36
2023-08-27T11:57:08.575Z,30.36
2023-08-27T11:59:36.546Z,30.39
2023-08-27T12:02:04.894Z,30.41
2023-08-27T12:04:34.071Z,30.40
2023-08-27T12:07:03.722Z,30.41
2023-08-27T12:09:33.053Z,30.41
2023-08-27T12:12:03.668Z,30.49
2023-08-27T12:14:33.068Z,30.62
2023-08-27T12:17:53.744Z,30.84
2023-08-27T12:20:32.588Z,30.92
2023-08-27T12:23:12.017Z,31.03
2023-08-27T12:25:47.332Z,31.14
2023-08-27T12:28:15.380Z,31.26
2023-08-27T12:30:49.182Z,31.45
2023-08-27T12:33:17.133Z,31.59
2023-08-27T12:35:46.032Z,31.58
2023-08-27T12:38:14.447Z,31.54
2023-08-27T12:40:42.447Z,31.47
2023-08-27T12:43:10.365Z,31.52
2023-08-27T12:45:38.304Z,31.46
2023-08-27T12:48:08.385Z,31.40
2023-08-27T12:50:36.374Z,31.32
2023-08-27T12:53:04.563Z,31.24
2023-08-27T12:55:32.515Z,31.25
2023-08-27T12:58:00.597Z,31.44
2023-08-27T13:00:28.810Z,31.62
2023-08-27T13:02:58.016Z,31.87
2023-08-27T13:05:27.646Z,32.12
2023-08-27T13:08:01.709Z,32.32
2023-08-27T13:10:30.062Z,32.46
2023-08-27T13:12:58.112Z,32.46
2023-08-27T13:15:26.278Z,32.37
2023-08-27T13:17:54.280Z,32.24
2023-08-27T13:20:22.432Z,32.22
2023-08-27T13:22:51.640Z,32.36
2023-08-27T13:25:19.503Z,32.52
2023-08-27T13:27:47.890Z,32.52
2023-08-27T13:30:15.942Z,32.54
2023-08-27T13:32:43.829Z,32.55
2023-08-27T13:35:11.723Z,32.52
2023-08-27T13:37:39.670Z,32.46
2023-08-27T13:40:09.897Z,32.34
2023-08-27T13:42:37.825Z,32.27
2023-08-27T13:45:06.465Z,32.23
2023-08-27T13:47:34.530Z,32.35
2023-08-27T13:50:02.606Z,32.67
2023-08-27T13:52:31.046Z,33.09
2023-08-27T13:54:59.017Z,33.44
2023-08-27T13:57:28.519Z,33.67
2023-08-27T13:59:56.692Z,33.80
2023-08-27T14:02:24.650Z,33.87
2023-08-27T14:04:52.712Z,33.83
2023-08-27T14:07:20.568Z,33.82
2023-08-27T14:09:48.481Z,33.79
2023-08-27T14:12:16.926Z,33.78
2023-08-27T14:14:46.534Z,33.71
2023-08-27T14:17:14.494Z,33.87
2023-08-27T14:19:42.446Z,33.94
2023-08-27T14:22:10.411Z,34.00
2023-08-27T14:24:38.366Z,34.07
2023-08-27T14:27:06.612Z,34.14
2023-08-27T14:29:34.512Z,34.10
2023-08-27T14:32:04.571Z,34.07
2023-08-27T14:34:33.050Z,34.14
2023-08-27T14:37:01.158Z,34.23
2023-08-27T14:39:29.462Z,34.31
2023-08-27T14:41:57.394Z,34.36
2023-08-27T14:44:25.318Z,34.38
2023-08-27T14:46:53.314Z,34.45
2023-08-27T14:49:22.684Z,34.49
2023-08-27T14:51:50.600Z,34.53
2023-08-27T14:54:18.569Z,34.53
2023-08-27T14:56:47.025Z,34.58
2023-08-27T14:59:40.226Z,34.67
2023-08-27T15:02:09.580Z,34.72
2023-08-27T15:04:38.849Z,34.81
2023-08-27T15:07:06.998Z,34.81
2023-08-27T15:09:35.284Z,34.77
2023-08-27T15:12:03.752Z,34.72
2023-08-27T15:14:31.838Z,34.73
2023-08-27T15:16:59.708Z,34.72
2023-08-27T15:19:27.661Z,34.64
2023-08-27T15:21:56.907Z,34.43
2023-08-27T15:24:24.772Z,34.15
2023-08-27T15:26:52.693Z,33.79
2023-08-27T15:29:20.645Z,33.49
2023-08-27T15:31:48.649Z,33.28
2023-08-27T15:34:16.668Z,33.16
2023-08-27T15:36:44.535Z,33.24
2023-08-27T15:39:13.810Z,33.15
2023-08-27T15:41:41.855Z,33.11
2023-08-27T15:44:09.844Z,33.26
2023-08-27T15:46:37.919Z,33.41
2023-08-27T15:49:06.046Z,33.52
2023-08-27T15:51:34.025Z,33.64
2023-08-27T15:54:01.964Z,33.69
2023-08-27T15:56:31.295Z,33.74
2023-08-27T15:58:59.294Z,33.73
2023-08-27T16:01:27.222Z,33.73
2023-08-27T16:03:55.204Z,33.67
2023-08-27T16:06:23.664Z,33.64
2023-08-27T16:08:54.841Z,33.64
2023-08-27T16:11:23.121Z,33.70
2023-08-27T16:13:52.631Z,33.77
2023-08-27T16:16:23.288Z,33.80
2023-08-27T16:18:52.248Z,33.73
2023-08-27T16:21:20.249Z,33.74
2023-08-27T16:23:48.253Z,33.74
2023-08-27T16:26:16.421Z,33.74
2023-08-27T16:28:44.357Z,33.72
2023-08-27T16:31:19.827Z,33.67
2023-08-27T16:33:48.681Z,33.61
2023-08-27T16:36:16.610Z,33.42
2023-08-27T16:38:44.570Z,33.40
2023-08-27T16:41:12.794Z,33.38
2023-08-27T16:43:40.764Z,33.21
2023-08-27T16:46:08.795Z,33.07
2023-08-27T16:48:39.459Z,32.80
2023-08-27T16:51:08.399Z,32.56
2023-08-27T16:53:36.255Z,32.36
2023-08-27T16:56:04.226Z,32.18
2023-08-27T16:58:32.136Z,31.99
2023-08-27T17:01:00.033Z,31.82
2023-08-27T17:03:28.157Z,31.66
2023-08-27T17:05:58.622Z,31.51
2023-08-27T17:08:26.859Z,31.38
2023-08-27T17:10:55.015Z,31.23
2023-08-27T17:13:22.979Z,31.12
2023-08-27T17:15:50.907Z,31.00
2023-08-27T17:18:18.860Z,30.92
2023-08-27T17:20:50.617Z,30.84
2023-08-27T17:23:20.236Z,30.75
2023-08-27T17:25:48.149Z,30.69
2023-08-27T17:28:16.170Z,30.59
2023-08-27T17:30:44.135Z,30.53
2023-08-27T17:33:12.895Z,30.46
2023-08-27T17:35:41.311Z,30.39
2023-08-27T17:38:09.228Z,30.31
2023-08-27T17:40:39.496Z,30.24
2023-08-27T17:43:07.414Z,30.20
2023-08-27T17:45:35.444Z,30.13
2023-08-27T17:48:07.861Z,30.07
2023-08-27T17:50:36.057Z,30.01
2023-08-27T17:53:04.362Z,29.95
2023-08-27T17:55:32.442Z,29.90
2023-08-27T17:58:02.440Z,29.85
2023-08-27T18:00:30.748Z,29.83
2023-08-27T18:02:58.843Z,29.77
2023-08-27T18:05:26.906Z,29.74
2023-08-27T18:07:54.860Z,29.72
2023-08-27T18:10:22.944Z,29.68
2023-08-27T18:12:50.858Z,29.66
2023-08-27T18:15:20.405Z,29.57
2023-08-27T18:17:48.325Z,29.61
2023-08-27T18:20:16.419Z,29.62
2023-08-27T18:22:44.328Z,29.60
2023-08-27T18:25:12.232Z,29.58
2023-08-27T18:27:40.126Z,29.54
2023-08-27T18:30:09.322Z,29.51
2023-08-27T18:32:43.915Z,29.48
2023-08-27T18:35:11.970Z,29.38
2023-08-27T18:37:40.288Z,29.45
2023-08-27T18:40:09.589Z,29.45
2023-08-27T18:42:37.774Z,29.41
2023-08-27T18:45:06.567Z,29.38
2023-08-27T18:47:34.548Z,29.36
2023-08-27T18:50:04.388Z,29.31
2023-08-27T18:52:32.356Z,29.27
2023-08-27T18:55:02.191Z,29.26
2023-08-27T18:57:30.343Z,29.25
2023-08-27T18:59:58.363Z,29.22
2023-08-27T19:02:26.722Z,29.19
2023-08-27T19:04:54.750Z,29.09
2023-08-27T19:07:24.222Z,29.00
2023-08-27T19:09:52.084Z,29.01
2023-08-27T19:12:20.188Z,28.99
2023-08-27T19:14:48.056Z,28.96
2023-08-27T19:17:16.447Z,28.92
2023-08-27T19:19:44.705Z,28.93
2023-08-27T19:22:12.651Z,28.94
2023-08-27T19:24:43.594Z,28.95
2023-08-27T19:27:11.607Z,28.94
2023-08-27T19:29:39.513Z,28.91
2023-08-27T19:32:07.449Z,28.86
2023-08-27T19:34:35.405Z,28.83
2023-08-27T19:37:03.364Z,28.81
2023-08-27T19:39:31.260Z,28.78
2023-08-27T19:42:00.483Z,28.77
2023-08-27T19:44:28.406Z,28.75
2023-08-27T19:46:56.400Z,28.72
2023-08-27T19:49:24.328Z,28.69
2023-08-27T19:51:52.223Z,28.67
2023-08-27T19:54:20.334Z,28.67
2023-08-27T19:56:48.222Z,28.59
2023-08-27T19:59:19.817Z,28.56
2023-08-27T20:01:49.134Z,28.56
2023-08-27T20:04:17.820Z,28.51
2023-08-27T20:06:46.784Z,28.57
2023-08-27T20:09:14.957Z,28.54
2023-08-27T20:11:43.271Z,28.52
2023-08-27T20:14:11.206Z,28.37
2023-08-27T20:16:40.475Z,28.27
2023-08-27T20:19:08.428Z,28.29
2023-08-27T20:21:36.410Z,28.28
2023-08-27T20:24:05.241Z,28.24
2023-08-27T20:26:33.795Z,28.26
2023-08-27T20:29:01.921Z,28.23
2023-08-27T20:31:29.971Z,28.19
2023-08-27T20:33:59.429Z,28.19
2023-08-27T20:36:27.477Z,28.13
2023-08-27T20:38:55.417Z,28.10
2023-08-27T20:41:23.645Z,27.99
2023-08-27T20:43:52.269Z,28.00
2023-08-27T20:46:20.853Z,28.02
2023-08-27T20:48:48.749Z,28.01
2023-08-27T20:51:18.056Z,28.01
2023-08-27T20:53:46.371Z,27.99
2023-08-27T20:56:14.388Z,27.91
2023-08-27T20:58:42.447Z,27.93
2023-08-27T21:01:10.900Z,27.92
2023-08-27T21:03:39.397Z,27.88
2023-08-27T21:06:07.665Z,27.86
2023-08-27T21:08:36.949Z,27.85
2023-08-27T21:11:09.080Z,27.82
2023-08-27T21:13:37.637Z,27.74
2023-08-27T21:16:05.997Z,27.75
2023-08-27T21:18:34.037Z,27.69
2023-08-27T21:21:02.029Z,27.71
2023-08-27T21:23:29.968Z,27.72
2023-08-27T21:26:00.394Z,27.71
2023-08-27T21:28:28.474Z,27.67
2023-08-27T21:30:57.971Z,27.66
2023-08-27T21:33:28.736Z,27.48
2023-08-27T21:35:56.682Z,27.36
2023-08-27T21:38:24.592Z,27.32
2023-08-27T21:40:55.144Z,27.26
2023-08-27T21:43:24.436Z,27.16
2023-08-27T21:45:52.321Z,26.82
2023-08-27T21:48:20.308Z,26.59
2023-08-27T21:50:48.250Z,26.63
2023-08-27T21:53:16.700Z,26.82
2023-08-27T21:55:44.620Z,26.67
2023-08-27T21:58:12.495Z,26.08
2023-08-27T22:00:42.069Z,25.86
2023-08-27T22:03:10.020Z,25.99
2023-08-27T22:05:38.005Z,26.17
2023-08-27T22:08:06.761Z,26.35
2023-08-27T22:10:35.671Z,26.55
2023-08-27T22:13:05.370Z,26.69
2023-08-27T22:15:33.518Z,26.72
2023-08-27T22:18:02.960Z,26.75
2023-08-27T22:20:31.330Z,26.73
2023-08-27T22:22:59.759Z,26.72
2023-08-27T22:25:28.021Z,26.67
2023-08-27T22:27:55.926Z,26.66
2023-08-27T22:30:23.927Z,26.67
2023-08-27T22:32:51.949Z,26.69
2023-08-27T22:35:21.889Z,26.71
2023-08-27T22:37:49.898Z,26.74
2023-08-27T22:40:18.096Z,26.74
2023-08-27T22:42:46.765Z,26.72
2023-08-27T22:45:14.722Z,26.70
2023-08-27T22:47:42.729Z,26.70
2023-08-27T22:50:10.926Z,26.70
2023-08-27T22:52:40.352Z,26.76
2023-08-27T22:55:09.157Z,26.75
2023-08-27T22:57:37.079Z,26.68
2023-08-27T23:00:07.085Z,26.72
2023-08-27T23:02:35.032Z,26.74
2023-08-27T23:05:03.265Z,26.79
2023-08-27T23:07:31.405Z,26.83
2023-08-27T23:10:00.664Z,26.82
2023-08-27T23:12:28.565Z,26.82
2023-08-27T23:14:56.518Z,26.81
2023-08-27T23:17:24.543Z,26.80
2023-08-27T23:19:52.518Z,26.70
2023-08-27T23:22:20.426Z,26.67
2023-08-27T23:24:48.678Z,26.62
2023-08-27T23:27:17.997Z,26.60
2023-08-27T23:29:45.845Z,26.55
2023-08-27T23:32:13.839Z,26.59
2023-08-27T23:34:41.776Z,26.62
2023-08-27T23:37:09.766Z,26.64
2023-08-27T23:39:38.461Z,26.66
2023-08-27T23:42:06.653Z,26.67
2023-08-27T23:44:36.919Z,26.54
2023-08-27T23:47:05.440Z,26.66
2023-08-27T23:49:33.362Z,26.65
2023-08-27T23:52:01.309Z,26.61
2023-08-27T23:54:29.317Z,26.56
2023-08-27T23:56:57.307Z,26.50
2023-08-27T23:59:25.830Z,26.47
